Time;durP1;ratioP1;P1;durP2;ratioP2;P2;SDS_P1;SDS_P2;PMS_P1;PMS_P2;Temp;Humidity;BMP_temperature;BMP_pressure;BME280_temperature;BME280_humidity;BME280_pressure;Samples;Min_cycle;Max_cycle;Signal;HPM_P1;HPM_P2
2023/07/03 00:00:31;;;;;;;18.17;4.53;;;18.40;84.40;;;;;;5074526;28;20327;-74
2023/07/03 00:02:58;;;;;;;15.68;4.47;;;18.30;84.50;;;;;;5078107;28;20028;-73
2023/07/03 00:05:24;;;;;;;16.65;4.30;;;18.30;84.60;;;;;;5080236;28;20096;-74
2023/07/03 00:07:51;;;;;;;12.93;4.78;;;18.30;84.50;;;;;;5078854;28;20068;-74
2023/07/03 00:10:17;;;;;;;20.30;4.88;;;18.30;84.40;;;;;;5078358;28;20031;-75
2023/07/03 00:12:44;;;;;;;17.67;4.35;;;18.30;84.70;;;;;;5073457;28;20112;-72
2023/07/03 00:15:10;;;;;;;24.63;6.07;;;18.30;84.70;;;;;;5073280;28;20027;-74
2023/07/03 00:17:37;;;;;;;17.55;4.30;;;18.20;85.10;;;;;;5067048;28;20419;-72
2023/07/03 00:20:05;;;;;;;18.52;5.88;;;18.30;85.10;;;;;;5073840;28;20394;-73
2023/07/03 00:22:31;;;;;;;21.75;5.10;;;18.30;85.10;;;;;;5077346;28;20031;-73
2023/07/03 00:24:56;;;;;;;16.00;4.53;;;18.30;85.20;;;;;;5064561;28;20135;-73
2023/07/03 00:27:22;;;;;;;20.67;5.32;;;18.40;85.00;;;;;;5072517;28;20078;-73
2023/07/03 00:29:48;;;;;;;15.95;4.57;;;18.40;84.80;;;;;;5057937;28;20024;-75
2023/07/03 00:32:13;;;;;;;17.88;5.22;;;18.30;84.70;;;;;;5070628;28;20028;-73
2023/07/03 00:34:40;;;;;;;18.17;4.97;;;18.30;84.80;;;;;;5057287;28;20140;-74
2023/07/03 00:37:06;;;;;;;16.27;3.88;;;18.30;84.70;;;;;;5071345;28;20032;-74
2023/07/03 00:39:32;;;;;;;17.83;4.68;;;18.30;84.50;;;;;;5071549;28;20039;-74
2023/07/03 00:41:58;;;;;;;14.88;3.80;;;18.20;84.70;;;;;;5070782;28;20052;-76
2023/07/03 00:44:24;;;;;;;14.20;3.97;;;18.10;84.80;;;;;;5070731;28;20092;-73
2023/07/03 00:46:51;;;;;;;18.38;5.05;;;18.20;84.60;;;;;;5070710;28;20139;-73
2023/07/03 00:49:20;;;;;;;19.05;4.50;;;18.20;84.70;;;;;;5071378;28;20082;-75
2023/07/03 00:51:57;;;;;;;23.63;5.05;;;18.20;84.60;;;;;;5070987;28;20029;-74
2023/07/03 00:54:23;;;;;;;17.40;4.55;;;18.10;84.60;;;;;;5069518;28;20021;-74
2023/07/03 00:56:49;;;;;;;25.10;5.32;;;18.10;84.60;;;;;;5070883;28;20066;-73
2023/07/03 00:59:15;;;;;;;22.05;4.63;;;18.10;84.50;;;;;;5070565;28;20067;-75
2023/07/03 01:01:49;;;;;;;16.08;4.63;;;18.10;84.50;;;;;;5070477;28;20029;-73
2023/07/03 01:04:25;;;;;;;13.93;4.63;;;18.10;84.50;;;;;;5055243;28;20040;-74
2023/07/03 01:07:04;;;;;;;26.05;5.25;;;18.00;84.80;;;;;;5058082;28;20505;-73
2023/07/03 01:09:53;;;;;;;18.50;4.65;;;18.00;85.00;;;;;;5055352;28;20020;-74
2023/07/03 01:12:21;;;;;;;17.50;4.20;;;18.00;85.00;;;;;;5069918;28;20028;-74
2023/07/03 01:14:49;;;;;;;19.40;5.28;;;18.00;84.90;;;;;;5068957;28;20040;-74
2023/07/03 01:17:15;;;;;;;16.13;4.68;;;18.00;85.00;;;;;;5068987;28;20075;-75
2023/07/03 01:19:46;;;;;;;17.17;4.32;;;18.00;84.80;;;;;;5069645;28;20688;-73
2023/07/03 01:22:29;;;;;;;14.13;3.38;;;18.00;84.80;;;;;;5069382;28;20025;-75
2023/07/03 01:25:10;;;;;;;13.75;4.03;;;18.00;84.90;;;;;;5068782;28;20102;-74
2023/07/03 01:27:40;;;;;;;19.67;4.28;;;18.00;84.80;;;;;;5068836;28;20021;-75
2023/07/03 01:30:07;;;;;;;;;;;17.90;84.80;;;;;;5069012;28;20016;-74
2023/07/03 01:32:35;;;;;;;18.45;4.03;;;17.80;84.90;;;;;;5069126;28;20676;-74
2023/07/03 01:35:03;;;;;;;14.55;4.55;;;17.80;85.10;;;;;;5068791;28;20029;-72
2023/07/03 01:37:30;;;;;;;14.20;3.53;;;17.80;85.30;;;;;;5067730;28;20059;-75
2023/07/03 01:39:58;;;;;;;14.88;4.80;;;17.80;85.40;;;;;;5056998;28;20437;-73
2023/07/03 01:42:26;;;;;;;15.95;4.47;;;17.80;85.40;;;;;;5068758;28;20513;-74
2023/07/03 01:44:51;;;;;;;18.45;4.72;;;17.70;85.50;;;;;;5068810;28;20398;-74
2023/07/03 01:47:17;;;;;;;12.50;4.13;;;17.70;85.50;;;;;;5068451;28;20024;-74
2023/07/03 01:49:43;;;;;;;16.52;4.78;;;17.70;85.70;;;;;;5054591;28;20024;-74
2023/07/03 01:52:20;;;;;;;17.08;4.55;;;17.70;85.80;;;;;;5068317;28;20021;-74
2023/07/03 01:55:08;;;;;;;19.55;4.18;;;17.70;85.80;;;;;;5055234;28;20032;-73
2023/07/03 01:57:48;;;;;;;16.75;4.25;;;17.60;86.00;;;;;;5069057;28;20048;-75
2023/07/03 02:00:22;;;;;;;23.00;5.05;;;17.50;86.40;;;;;;5068670;28;20024;-73
2023/07/03 02:02:53;;;;;;;20.33;4.68;;;17.50;86.60;;;;;;5050713;28;20494;-75
2023/07/03 02:05:24;;;;;;;18.98;4.55;;;17.50;87.50;;;;;;5068590;28;20025;-74
2023/07/03 02:07:55;;;;;;;16.75;4.60;;;17.50;86.80;;;;;;5054998;28;20024;-74
2023/07/03 02:10:20;;;;;;;21.80;5.15;;;17.50;87.00;;;;;;5050617;28;20013;-74
2023/07/03 02:12:47;;;;;;;21.67;5.07;;;17.50;87.10;;;;;;5068953;28;20053;-75
2023/07/03 02:15:14;;;;;;;27.33;6.80;;;17.50;87.10;;;;;;5069154;28;20028;-75
2023/07/03 02:17:40;;;;;;;19.63;4.72;;;17.40;87.50;;;;;;5062962;28;20035;-75
2023/07/03 02:20:07;;;;;;;21.25;5.07;;;17.40;87.70;;;;;;5050647;28;20028;-74
2023/07/03 02:22:33;;;;;;;16.77;4.57;;;17.40;87.80;;;;;;5069897;28;20020;-75
2023/07/03 02:24:59;;;;;;;23.92;6.32;;;17.40;87.80;;;;;;5072082;28;20109;-75
2023/07/03 02:27:24;;;;;;;20.30;5.53;;;17.40;88.60;;;;;;5073055;28;20039;-75
2023/07/03 02:29:50;;;;;;;16.38;3.80;;;17.40;88.00;;;;;;5065783;28;20075;-74
2023/07/03 02:32:16;;;;;;;21.05;5.65;;;17.40;87.80;;;;;;5072827;28;20055;-77
2023/07/03 02:34:41;;;;;;;21.33;5.35;;;17.40;87.90;;;;;;5054652;28;20025;-74
2023/07/03 02:37:09;;;;;;;15.68;4.30;;;17.40;88.10;;;;;;5071774;28;20408;-74
2023/07/03 02:39:35;;;;;;;20.85;5.82;;;17.40;88.30;;;;;;5072846;28;20108;-73
2023/07/03 02:42:00;;;;;;;20.25;6.07;;;17.30;88.50;;;;;;5072113;28;20104;-75
2023/07/03 02:44:26;;;;;;;17.08;5.05;;;17.20;88.90;;;;;;5072134;28;20149;-75
2023/07/03 02:46:52;;;;;;;18.25;4.85;;;17.30;88.90;;;;;;5067353;28;20025;-74
2023/07/03 02:49:18;;;;;;;18.70;6.05;;;17.30;89.00;;;;;;5054612;28;20067;-73
2023/07/03 02:51:44;;;;;;;20.90;5.32;;;17.30;89.30;;;;;;5059129;28;20021;-74
2023/07/03 02:54:10;;;;;;;23.67;5.60;;;17.30;89.50;;;;;;5071999;28;20432;-74
2023/07/03 02:56:37;;;;;;;20.92;5.15;;;17.30;89.70;;;;;;5072215;28;20029;-73
2023/07/03 02:59:03;;;;;;;22.33;4.95;;;17.30;89.80;;;;;;5053530;28;20282;-74
2023/07/03 03:01:28;;;;;;;21.65;5.43;;;17.30;90.00;;;;;;5071853;28;20483;-73
2023/07/03 03:03:55;;;;;;;17.40;5.38;;;17.30;90.20;;;;;;5071639;28;20099;-75
2023/07/03 03:06:20;;;;;;;18.05;4.78;;;17.20;90.30;;;;;;5071986;28;20470;-74
2023/07/03 03:08:46;;;;;;;20.10;5.80;;;17.30;90.40;;;;;;5068861;28;20048;-73
2023/07/03 03:11:12;;;;;;;16.58;4.95;;;17.20;90.50;;;;;;5047343;28;20025;-73
2023/07/03 03:13:37;;;;;;;22.92;5.63;;;17.20;90.60;;;;;;5070476;28;20831;-74
2023/07/03 03:16:04;;;;;;;30.52;6.10;;;17.20;90.70;;;;;;5071449;28;20058;-75
2023/07/03 03:18:29;;;;;;;24.65;5.47;;;17.20;90.90;;;;;;5072038;28;20093;-74
2023/07/03 03:20:55;;;;;;;17.10;5.97;;;17.20;90.90;;;;;;5071615;28;20020;-73
2023/07/03 03:23:20;;;;;;;20.38;6.07;;;17.20;91.00;;;;;;5071106;28;20073;-73
2023/07/03 03:25:46;;;;;;;24.40;6.63;;;17.20;91.30;;;;;;5071740;28;20028;-74
2023/07/03 03:28:12;;;;;;;24.15;5.75;;;17.10;91.70;;;;;;5071248;28;20020;-74
2023/07/03 03:30:38;;;;;;;19.48;4.20;;;17.20;91.80;;;;;;5071026;28;20104;-73
2023/07/03 03:33:04;;;;;;;23.75;6.10;;;17.20;92.00;;;;;;5071142;28;20624;-73
2023/07/03 03:35:29;;;;;;;19.13;5.38;;;17.10;92.60;;;;;;5071608;28;20095;-73
2023/07/03 03:37:55;;;;;;;36.10;8.13;;;17.10;92.90;;;;;;5071430;28;20040;-73
2023/07/03 03:40:21;;;;;;;22.70;5.88;;;17.00;93.60;;;;;;5071424;28;20161;-74
2023/07/03 03:42:46;;;;;;;18.60;6.70;;;17.00;93.50;;;;;;5070598;28;20032;-74
2023/07/03 03:45:12;;;;;;;30.40;6.72;;;17.00;93.90;;;;;;5071126;28;20025;-74
2023/07/03 03:47:37;;;;;;;35.17;7.93;;;17.00;94.10;;;;;;5071752;28;20033;-73
2023/07/03 03:50:03;;;;;;;22.40;5.55;;;17.00;94.30;;;;;;5070961;28;20020;-74
2023/07/03 03:52:29;;;;;;;34.63;7.93;;;17.00;94.30;;;;;;5070818;28;20104;-74
2023/07/03 03:54:55;;;;;;;23.27;6.90;;;17.00;94.30;;;;;;5053143;28;20115;-74
2023/07/03 03:57:21;;;;;;;30.67;6.82;;;17.10;94.60;;;;;;5066223;28;20078;-73
2023/07/03 03:59:50;;;;;;;30.30;6.80;;;17.10;94.80;;;;;;5071026;28;20021;-73
2023/07/03 04:02:16;;;;;;;25.35;6.47;;;17.00;94.90;;;;;;5065113;28;20021;-72
2023/07/03 04:04:42;;;;;;;28.27;7.25;;;17.00;94.90;;;;;;5062742;28;20774;-74
2023/07/03 04:07:07;;;;;;;29.13;7.63;;;17.00;95.00;;;;;;5060338;28;20036;-72
2023/07/03 04:09:33;;;;;;;26.55;7.00;;;17.10;95.20;;;;;;5064230;28;20017;-74
2023/07/03 04:11:59;;;;;;;31.95;7.38;;;17.00;95.40;;;;;;5066588;28;20021;-75
2023/07/03 04:14:25;;;;;;;28.42;7.53;;;17.00;95.50;;;;;;5062325;28;20033;-74
2023/07/03 04:16:51;;;;;;;26.77;5.68;;;17.00;95.50;;;;;;5063562;28;20032;-75
2023/07/03 04:19:18;;;;;;;34.67;7.75;;;17.00;95.80;;;;;;5063829;28;20059;-74
2023/07/03 04:21:45;;;;;;;35.90;8.63;;;17.10;95.70;;;;;;5059259;28;20028;-74
2023/07/03 04:24:10;;;;;;;28.48;7.28;;;17.10;95.50;;;;;;5061434;28;20052;-74
2023/07/03 04:26:38;;;;;;;20.23;5.78;;;17.10;95.60;;;;;;5047016;28;20025;-74
2023/07/03 04:29:04;;;;;;;23.70;6.20;;;17.10;95.60;;;;;;5065288;28;20027;-74
2023/07/03 04:31:31;;;;;;;27.42;7.60;;;17.10;96.00;;;;;;5043519;28;20025;-74
2023/07/03 04:33:57;;;;;;;23.13;6.63;;;17.10;95.30;;;;;;5049529;28;20039;-74
2023/07/03 04:36:23;;;;;;;31.90;6.63;;;17.00;95.30;;;;;;5063700;28;20017;-75
2023/07/03 04:38:49;;;;;;;32.58;7.05;;;17.00;95.60;;;;;;5061845;28;20031;-75
2023/07/03 04:41:16;;;;;;;27.30;6.95;;;17.00;95.90;;;;;;5059815;28;20025;-74
2023/07/03 04:43:44;;;;;;;27.05;6.53;;;17.00;95.90;;;;;;5063704;28;20028;-72
2023/07/03 04:46:11;;;;;;;31.30;7.85;;;16.90;95.90;;;;;;5059595;28;20020;-74
2023/07/03 04:48:36;;;;;;;33.20;7.50;;;17.00;95.90;;;;;;5062320;28;20029;-74
2023/07/03 04:51:03;;;;;;;19.77;5.68;;;17.00;96.00;;;;;;5058190;28;20031;-75
2023/07/03 04:53:31;;;;;;;23.13;5.45;;;17.00;95.90;;;;;;5062491;28;20019;-74
2023/07/03 04:55:57;;;;;;;26.17;6.60;;;17.00;95.80;;;;;;5061833;28;20028;-75
2023/07/03 04:58:23;;;;;;;28.95;7.10;;;17.00;95.80;;;;;;5064461;28;20072;-73
2023/07/03 05:00:49;;;;;;;29.95;7.90;;;17.10;95.80;;;;;;5062595;28;20017;-75
2023/07/03 05:03:15;;;;;;;31.20;7.15;;;17.10;95.80;;;;;;5065300;28;20401;-75
2023/07/03 05:05:41;;;;;;;30.67;8.27;;;17.10;95.80;;;;;;5059951;28;20486;-74
2023/07/03 05:08:07;;;;;;;26.17;7.18;;;17.10;95.90;;;;;;5062532;28;20048;-74
2023/07/03 05:10:32;;;;;;;31.13;8.55;;;17.10;95.80;;;;;;5042775;28;20016;-73
2023/07/03 05:13:01;;;;;;;29.02;6.28;;;17.10;95.80;;;;;;5059784;28;20616;-74
2023/07/03 05:15:29;;;;;;;37.20;7.63;;;17.10;95.80;;;;;;5061159;28;20021;-73
2023/07/03 05:17:55;;;;;;;32.83;7.80;;;17.00;95.90;;;;;;5065905;28;20575;-75
2023/07/03 05:20:31;;;;;;;23.05;6.80;;;17.10;95.80;;;;;;5049991;28;20048;-73
2023/07/03 05:22:57;;;;;;;27.50;7.57;;;17.00;95.90;;;;;;5058701;28;20121;-75
2023/07/03 05:25:23;;;;;;;34.28;8.23;;;17.00;96.00;;;;;;5059483;28;20049;-73
2023/07/03 05:27:49;;;;;;;33.40;7.50;;;16.90;96.40;;;;;;5042298;28;20714;-72
2023/07/03 05:30:15;;;;;;;30.10;7.10;;;17.00;96.30;;;;;;5064969;28;20111;-73
2023/07/03 05:32:43;;;;;;;25.60;6.03;;;17.00;96.30;;;;;;5064715;28;20021;-74
2023/07/03 05:35:09;;;;;;;20.75;6.03;;;17.00;96.00;;;;;;5040520;28;20012;-73
2023/07/03 05:37:38;;;;;;;28.17;6.93;;;17.00;96.20;;;;;;5044677;28;20530;-74
2023/07/03 05:40:06;;;;;;;21.77;6.43;;;17.00;96.40;;;;;;5062459;28;20047;-74
2023/07/03 05:42:32;;;;;;;30.13;7.13;;;17.00;96.20;;;;;;5068784;28;20036;-75
2023/07/03 05:44:58;;;;;;;28.75;7.35;;;17.00;96.50;;;;;;5037985;28;20108;-76
2023/07/03 05:47:24;;;;;;;21.73;6.45;;;17.10;96.30;;;;;;5067022;28;20529;-73
2023/07/03 05:49:52;;;;;;;24.88;6.82;;;17.10;96.30;;;;;;5058062;28;20036;-74
2023/07/03 05:52:17;;;;;;;38.78;7.47;;;17.20;96.30;;;;;;5065274;28;20086;-77
2023/07/03 05:54:43;;;;;;;19.48;5.90;;;17.30;96.10;;;;;;5068022;28;20020;-77
2023/07/03 05:57:10;;;;;;;29.58;8.45;;;17.40;95.70;;;;;;5068131;28;20041;-75
2023/07/03 05:59:38;;;;;;;35.90;9.02;;;17.40;95.90;;;;;;5066760;28;20597;-74
2023/07/03 06:02:07;;;;;;;32.58;8.52;;;17.50;95.80;;;;;;5063753;28;20025;-77
2023/07/03 06:04:33;;;;;;;30.40;9.00;;;17.50;95.90;;;;;;5049423;28;20095;-78
2023/07/03 06:07:00;;;;;;;28.83;7.93;;;17.70;95.90;;;;;;5067186;28;20486;-76
2023/07/03 06:09:27;;;;;;;29.13;7.70;;;17.70;95.70;;;;;;5061746;28;20051;-78
2023/07/03 06:11:53;;;;;;;36.22;8.13;;;17.70;95.40;;;;;;5046252;28;20020;-76
2023/07/03 06:14:19;;;;;;;29.23;7.93;;;17.70;95.50;;;;;;5064084;28;20025;-77
2023/07/03 06:16:47;;;;;;;25.45;7.20;;;17.70;95.50;;;;;;5065026;28;20033;-78
2023/07/03 06:19:13;;;;;;;24.45;6.97;;;17.70;95.10;;;;;;5062138;28;20052;-77
2023/07/03 06:21:40;;;;;;;20.90;6.47;;;17.60;95.00;;;;;;5045739;28;20070;-76
2023/07/03 06:24:07;;;;;;;31.20;7.57;;;17.70;95.10;;;;;;5062303;28;20068;-75
2023/07/03 06:26:33;;;;;;;28.65;7.70;;;17.70;95.20;;;;;;5064240;28;20029;-76
2023/07/03 06:29:03;;;;;;;29.45;6.72;;;17.70;95.40;;;;;;5071026;28;20008;-77
2023/07/03 06:31:29;;;;;;;28.67;7.40;;;17.80;95.30;;;;;;5071902;28;20319;-75
2023/07/03 06:33:55;;;;;;;29.27;9.23;;;17.80;95.40;;;;;;5070894;28;20491;-75
2023/07/03 06:36:23;;;;;;;31.52;9.23;;;17.80;95.40;;;;;;5057985;28;20024;-75
2023/07/03 06:38:53;;;;;;;25.92;6.65;;;17.80;95.30;;;;;;5067720;28;20497;-76
2023/07/03 06:41:19;;;;;;;31.02;9.30;;;17.70;95.30;;;;;;5069212;28;20035;-73
2023/07/03 06:43:45;;;;;;;29.50;9.35;;;17.70;95.40;;;;;;5068870;28;20074;-76
2023/07/03 06:46:10;;;;;;;31.08;7.63;;;17.70;95.60;;;;;;5068746;28;20103;-76
2023/07/03 06:48:36;;;;;;;29.40;7.97;;;17.70;95.50;;;;;;5068081;28;20032;-76
2023/07/03 06:51:04;;;;;;;29.00;7.50;;;17.70;95.60;;;;;;5067912;28;20029;-75
2023/07/03 06:53:30;;;;;;;25.23;6.75;;;17.70;95.30;;;;;;5067992;28;20020;-75
2023/07/03 06:55:57;;;;;;;28.35;7.55;;;17.70;95.40;;;;;;5060024;28;20756;-76
2023/07/03 06:58:23;;;;;;;23.58;6.78;;;17.70;95.40;;;;;;5066246;28;20056;-75
2023/07/03 07:00:49;;;;;;;22.38;7.05;;;17.80;95.30;;;;;;5072931;28;20050;-75
2023/07/03 07:03:15;;;;;;;31.45;7.80;;;17.70;95.30;;;;;;5080966;28;20024;-75
2023/07/03 07:05:40;;;;;;;29.83;8.00;;;17.70;95.30;;;;;;5078462;28;20076;-75
2023/07/03 07:08:06;;;;;;;26.10;6.82;;;17.80;95.20;;;;;;5077475;28;20059;-76
2023/07/03 07:10:31;;;;;;;29.25;6.38;;;17.90;94.60;;;;;;5071554;28;20024;-75
2023/07/03 07:12:57;;;;;;;28.63;7.43;;;18.00;94.50;;;;;;5070335;28;20029;-75
2023/07/03 07:15:24;;;;;;;24.13;6.80;;;18.00;94.60;;;;;;5084834;28;20021;-76
2023/07/03 07:17:49;;;;;;;24.33;6.68;;;18.00;94.60;;;;;;5053389;28;20032;-74
2023/07/03 07:20:15;;;;;;;29.10;7.68;;;18.00;94.70;;;;;;5074441;28;20016;-75
2023/07/03 07:22:41;;;;;;;23.48;6.55;;;18.00;94.80;;;;;;5074135;28;20036;-77
2023/07/03 07:25:07;;;;;;;22.20;6.95;;;18.10;94.80;;;;;;5055943;28;20048;-76
2023/07/03 07:27:56;;;;;;;22.67;6.25;;;18.20;94.20;;;;;;5076667;28;20043;-75
2023/07/03 07:30:29;;;;;;;24.70;6.20;;;18.20;94.00;;;;;;5077087;28;20024;-76
2023/07/03 07:33:15;;;;;;;26.10;6.80;;;18.20;93.90;;;;;;5071891;28;20076;-77
2023/07/03 07:35:55;;;;;;;24.30;6.35;;;18.30;94.10;;;;;;5078962;28;20027;-76
2023/07/03 07:38:21;;;;;;;23.30;5.93;;;18.20;93.70;;;;;;5076893;28;20096;-76
2023/07/03 07:40:48;;;;;;;24.60;6.28;;;18.30;93.90;;;;;;5080386;28;20544;-75
2023/07/03 07:43:43;;;;;;;24.63;5.93;;;18.30;93.90;;;;;;5082966;28;20051;-77
2023/07/03 07:46:09;;;;;;;29.70;7.60;;;18.40;93.90;;;;;;5061290;28;20052;-75
2023/07/03 07:48:36;;;;;;;22.92;6.80;;;18.50;93.90;;;;;;5080106;28;20032;-75
2023/07/03 07:51:08;;;;;;;24.25;6.80;;;18.50;93.40;;;;;;5080798;28;20024;-75
2023/07/03 07:53:34;;;;;;;26.83;5.97;;;18.50;93.40;;;;;;5079185;28;20028;-76
2023/07/03 07:56:00;;;;;;;18.75;5.13;;;18.80;93.20;;;;;;5080397;28;20104;-75
2023/07/03 07:58:26;;;;;;;21.63;5.53;;;19.00;92.60;;;;;;5079473;28;20070;-78
2023/07/03 08:00:58;;;;;;;20.42;5.55;;;19.20;92.30;;;;;;5080450;28;20029;-77
2023/07/03 08:03:25;;;;;;;20.02;5.95;;;19.30;92.20;;;;;;5079925;28;20028;-75
2023/07/03 08:06:00;;;;;;;17.33;5.25;;;19.30;92.10;;;;;;5061199;28;20021;-76
2023/07/03 08:08:27;;;;;;;20.48;6.05;;;19.40;91.70;;;;;;5079852;28;20059;-75
2023/07/03 08:10:58;;;;;;;23.00;5.97;;;19.30;92.00;;;;;;5080522;28;20033;-76
2023/07/03 08:13:25;;;;;;;22.88;6.47;;;19.30;92.10;;;;;;5079911;28;20636;-75
2023/07/03 08:15:52;;;;;;;18.75;5.68;;;19.40;91.90;;;;;;5080474;28;20526;-77
2023/07/03 08:18:19;;;;;;;17.75;5.55;;;19.60;91.80;;;;;;5076764;28;20425;-75
2023/07/03 08:20:45;;;;;;;26.52;6.07;;;19.80;91.20;;;;;;5076748;28;20021;-76
2023/07/03 08:23:11;;;;;;;18.20;4.55;;;19.90;91.10;;;;;;5078482;28;20139;-77
2023/07/03 08:25:37;;;;;;;18.48;6.30;;;20.00;90.50;;;;;;5079055;28;20048;-76
2023/07/03 08:28:04;;;;;;;15.95;5.72;;;20.10;90.70;;;;;;5079446;28;20017;-76
2023/07/03 08:30:31;;;;;;;15.13;5.10;;;20.10;90.30;;;;;;5080085;28;20405;-75
2023/07/03 08:32:56;;;;;;;22.10;6.32;;;20.30;90.20;;;;;;5078566;28;20043;-75
2023/07/03 08:35:22;;;;;;;16.75;4.93;;;20.10;89.10;;;;;;5079259;28;20021;-76
2023/07/03 08:37:47;;;;;;;20.38;5.95;;;20.20;89.50;;;;;;5077899;28;20036;-75
2023/07/03 08:40:19;;;;;;;22.10;6.05;;;20.40;88.90;;;;;;5077325;28;20024;-75
2023/07/03 08:42:49;;;;;;;15.13;4.47;;;20.70;87.70;;;;;;5067914;28;20028;-76
2023/07/03 08:45:17;;;;;;;18.48;4.53;;;20.90;87.00;;;;;;5074703;28;20143;-75
2023/07/03 08:47:44;;;;;;;19.42;4.53;;;21.10;85.70;;;;;;5070016;28;20032;-76
2023/07/03 08:50:14;;;;;;;18.83;4.63;;;21.30;85.00;;;;;;5066881;28;20028;-77
2023/07/03 08:53:07;;;;;;;;;;;21.30;83.50;;;;;;5076675;28;20101;-74
2023/07/03 08:55:56;;;;;;;16.92;4.75;;;21.20;82.90;;;;;;5072979;28;19908;-76
2023/07/03 08:58:22;;;;;;;14.98;4.07;;;20.80;83.70;;;;;;5074586;28;20060;-76
2023/07/03 09:01:22;;;;;;;12.65;3.10;;;20.60;81.30;;;;;;5066887;28;20031;-77
2023/07/03 09:03:54;;;;;;;16.98;3.65;;;20.40;81.20;;;;;;5061908;28;20029;-72
2023/07/03 09:06:29;;;;;;;16.58;3.55;;;20.20;80.90;;;;;;5075573;28;20020;-75
2023/07/03 09:09:18;;;;;;;18.17;3.40;;;20.00;81.80;;;;;;5074918;28;20020;-77
2023/07/03 09:12:03;;;;;;;13.65;3.15;;;19.80;80.80;;;;;;5076094;28;20573;-76
2023/07/03 09:14:37;;;;;;;12.23;3.35;;;19.80;81.80;;;;;;5064486;28;20394;-75
2023/07/03 09:17:07;;;;;;;13.32;3.47;;;19.80;82.80;;;;;;5069654;28;20028;-75
2023/07/03 09:19:34;;;;;;;11.70;3.67;;;20.00;83.80;;;;;;5054971;28;20070;-75
2023/07/03 09:22:03;;;;;;;20.23;4.35;;;20.30;82.20;;;;;;5069106;28;20017;-75
2023/07/03 09:24:41;;;;;;;14.18;3.72;;;20.60;81.00;;;;;;5059374;28;20049;-77
2023/07/03 09:27:21;;;;;;;15.90;3.70;;;20.90;81.60;;;;;;5064796;28;20029;-75
2023/07/03 09:29:49;;;;;;;17.73;4.25;;;20.90;80.10;;;;;;5064926;28;20025;-74
2023/07/03 09:32:26;;;;;;;14.02;4.22;;;20.90;80.80;;;;;;5066526;28;20024;-75
2023/07/03 09:35:11;;;;;;;16.17;3.58;;;20.70;81.40;;;;;;5058888;28;20032;-75
2023/07/03 09:37:39;;;;;;;9.65;2.63;;;20.50;81.50;;;;;;5067000;28;20040;-75
2023/07/03 09:40:09;;;;;;;16.85;4.10;;;20.20;82.20;;;;;;5067869;28;20033;-75
2023/07/03 09:42:35;;;;;;;17.92;4.57;;;20.00;83.10;;;;;;5054360;28;20415;-75
2023/07/03 09:45:01;;;;;;;11.35;2.58;;;19.90;84.80;;;;;;5067218;28;20113;-74
2023/07/03 09:47:29;;;;;;;11.30;2.78;;;19.90;86.50;;;;;;5069161;28;20482;-76
2023/07/03 09:50:01;;;;;;;9.73;2.25;;;19.90;87.80;;;;;;5061902;28;20036;-76
2023/07/03 09:52:27;;;;;;;16.20;3.03;;;19.90;87.30;;;;;;5068200;28;20139;-75
2023/07/03 09:54:53;;;;;;;13.05;3.10;;;20.10;86.80;;;;;;5079696;28;20111;-76
2023/07/03 09:57:27;;;;;;;11.63;3.15;;;20.30;82.80;;;;;;5065730;28;20029;-75
2023/07/03 10:00:11;;;;;;;9.57;3.00;;;20.50;81.00;;;;;;5067252;28;20079;-75
2023/07/03 10:02:37;;;;;;;17.45;4.45;;;20.80;81.80;;;;;;5068645;28;20135;-77
2023/07/03 10:05:05;;;;;;;16.48;4.30;;;20.80;79.80;;;;;;5047706;28;20065;-76
2023/07/03 10:07:33;;;;;;;16.20;3.95;;;20.70;81.10;;;;;;5067485;28;20089;-75
2023/07/03 10:10:00;;;;;;;17.67;4.00;;;20.70;81.80;;;;;;5069184;28;20029;-76
2023/07/03 10:12:34;;;;;;;21.33;3.72;;;20.50;81.10;;;;;;5067834;28;20387;-78
2023/07/03 10:15:06;;;;;;;13.35;3.83;;;20.40;81.50;;;;;;5055553;28;20394;-77
2023/07/03 10:17:47;;;;;;;16.63;3.92;;;20.20;81.90;;;;;;5063248;28;20569;-73
2023/07/03 10:20:23;;;;;;;16.48;3.70;;;19.90;82.70;;;;;;5067217;28;20131;-75
2023/07/03 10:22:51;;;;;;;17.25;3.13;;;19.70;82.20;;;;;;5066009;28;20367;-75
2023/07/03 10:25:22;;;;;;;15.05;2.80;;;19.60;83.40;;;;;;5066152;28;20056;-76
2023/07/03 10:27:51;;;;;;;13.88;3.15;;;19.40;82.90;;;;;;5054685;28;20055;-75
2023/07/03 10:30:18;;;;;;;11.05;2.85;;;19.30;82.40;;;;;;5067406;28;20082;-76
2023/07/03 10:32:49;;;;;;;17.08;3.30;;;19.30;82.90;;;;;;5066272;28;20051;-75
2023/07/03 10:35:35;;;;;;;15.32;3.53;;;19.40;82.20;;;;;;5068044;28;20017;-75
2023/07/03 10:38:29;;;;;;;12.85;3.35;;;19.60;81.00;;;;;;5061585;28;20049;-74
2023/07/03 10:41:07;;;;;;;11.38;3.42;;;19.70;80.30;;;;;;5068024;28;20033;-76
2023/07/03 10:43:42;;;;;;;10.40;2.65;;;19.80;79.40;;;;;;5068568;28;20559;-76
2023/07/03 10:46:14;;;;;;;11.07;3.15;;;20.00;80.20;;;;;;5065790;28;20025;-77
2023/07/03 10:48:42;;;;;;;12.77;2.75;;;19.90;78.50;;;;;;5053129;28;20111;-75
2023/07/03 10:51:29;;;;;;;13.13;2.90;;;19.80;78.10;;;;;;5069217;28;20132;-74
2023/07/03 10:54:01;;;;;;;12.45;3.00;;;19.70;78.60;;;;;;5070606;28;20028;-74
2023/07/03 10:56:41;;;;;;;12.45;3.88;;;19.70;79.00;;;;;;5065198;28;20043;-75
2023/07/03 10:59:35;;;;;;;16.77;3.60;;;19.70;78.90;;;;;;5067206;28;20074;-75
2023/07/03 11:02:26;;;;;;;12.82;3.33;;;19.70;79.20;;;;;;5060760;28;20016;-74
2023/07/03 11:05:17;;;;;;;15.85;4.30;;;19.70;79.60;;;;;;5064564;28;20059;-76
2023/07/03 11:07:48;;;;;;;7.72;2.97;;;19.70;78.80;;;;;;5071541;28;20489;-75
2023/07/03 11:10:40;;;;;;;12.43;2.80;;;19.80;79.50;;;;;;5071527;28;20110;-77
2023/07/03 11:13:23;;;;;;;10.35;2.95;;;19.80;78.20;;;;;;5065803;28;20100;-75
2023/07/03 11:16:07;;;;;;;12.60;3.28;;;19.80;78.90;;;;;;5067911;28;20025;-75
2023/07/03 11:18:52;;;;;;;11.68;3.08;;;19.80;77.90;;;;;;5069964;28;20032;-76
2023/07/03 11:21:35;;;;;;;12.90;2.90;;;19.70;77.50;;;;;;5068630;28;20115;-77
2023/07/03 11:24:29;;;;;;;12.15;3.33;;;19.60;79.70;;;;;;5063796;28;20037;-76
2023/07/03 11:27:09;;;;;;;17.02;3.38;;;19.50;78.30;;;;;;5071578;28;20036;-76
2023/07/03 11:29:36;;;;;;;13.82;3.30;;;19.60;76.90;;;;;;5057665;28;20043;-77
2023/07/03 11:32:05;;;;;;;8.98;2.30;;;19.50;76.00;;;;;;5069334;28;20086;-76
2023/07/03 11:34:32;;;;;;;10.43;2.13;;;19.60;77.90;;;;;;5070247;28;20032;-75
2023/07/03 11:36:58;;;;;;;13.73;2.83;;;19.60;75.10;;;;;;5069410;28;20058;-76
2023/07/03 11:39:33;;;;;;;13.40;3.38;;;19.70;75.50;;;;;;5069442;28;20094;-76
2023/07/03 11:42:01;;;;;;;9.02;1.85;;;20.00;75.20;;;;;;5066838;28;20032;-76
2023/07/03 11:44:27;;;;;;;12.18;2.47;;;20.30;74.10;;;;;;5070712;28;20020;-77
2023/07/03 11:46:54;;;;;;;9.00;2.28;;;20.70;72.90;;;;;;5070884;28;20078;-76
2023/07/03 11:49:25;;;;;;;11.50;2.22;;;21.00;71.60;;;;;;5071086;28;20025;-77
2023/07/03 11:51:55;;;;;;;;;;;21.00;71.70;;;;;;5070865;28;20466;-77
2023/07/03 11:54:23;;;;;;;;;;;21.10;73.10;;;;;;5071024;28;19905;-75
2023/07/03 11:56:54;;;;;;;13.55;3.08;;;21.10;73.10;;;;;;5055195;28;19904;-76
2023/07/03 11:59:22;;;;;;;8.02;2.47;;;21.00;72.30;;;;;;5070653;28;20123;-76
2023/07/03 12:01:53;;;;;;;13.13;3.15;;;21.10;72.40;;;;;;5070714;28;20048;-75
2023/07/03 12:04:56;;;;;;;11.82;3.10;;;21.20;72.80;;;;;;5067614;28;20100;-78
2023/07/03 12:07:24;;;;;;;8.48;2.20;;;21.00;73.20;;;;;;4980861;28;20113;-77
2023/07/03 12:09:50;;;;;;;13.30;3.00;;;20.90;74.00;;;;;;5047513;28;20039;-76
2023/07/03 12:12:20;;;;;;;10.68;2.13;;;20.70;73.60;;;;;;5046427;28;20098;-79
2023/07/03 12:14:54;;;;;;;11.60;2.85;;;20.50;74.60;;;;;;5061790;28;20028;-77
2023/07/03 12:17:24;;;;;;;14.85;3.03;;;20.40;75.30;;;;;;5062576;28;20502;-77
2023/07/03 12:20:04;;;;;;;13.20;2.33;;;20.30;76.00;;;;;;5064528;28;20019;-77
2023/07/03 12:22:29;;;;;;;;;;;20.10;75.90;;;;;;5064562;28;20094;-76
2023/07/03 12:25:07;;;;;;;10.25;2.78;;;20.10;77.30;;;;;;5064958;28;20344;-77
2023/07/03 12:27:35;;;;;;;10.32;2.85;;;20.20;77.20;;;;;;5061350;28;20017;-76
2023/07/03 12:30:01;;;;;;;10.52;2.33;;;20.40;77.20;;;;;;5043548;28;20016;-76
2023/07/03 12:32:29;;;;;;;15.05;3.30;;;20.70;76.80;;;;;;5065375;28;20025;-77
2023/07/03 12:35:27;;;;;;;8.65;2.42;;;21.10;76.50;;;;;;5063188;28;20092;-77
2023/07/03 12:37:55;;;;;;;10.43;2.88;;;21.10;75.90;;;;;;5064692;28;20090;-77
2023/07/03 12:40:23;;;;;;;9.85;1.95;;;21.00;73.70;;;;;;5061751;28;20123;-79
2023/07/03 12:42:58;;;;;;;11.65;2.70;;;21.00;72.10;;;;;;5063881;28;20046;-78
2023/07/03 12:45:29;;;;;;;11.15;2.10;;;21.00;72.10;;;;;;5064595;28;20598;-77
2023/07/03 12:48:09;;;;;;;7.07;1.75;;;20.90;67.50;;;;;;5059802;28;20067;-77
2023/07/03 12:50:46;;;;;;;8.95;2.42;;;20.90;68.70;;;;;;5061706;28;20036;-76